createdAt,value
2023-01-31T00:01:27.906Z,97844.53
2023-01-31T00:04:00.547Z,97836.66
2023-01-31T00:06:32.171Z,97833.09
2023-01-31T00:09:00.645Z,97837.41
2023-01-31T00:11:29.762Z,97839.00
2023-01-31T00:13:58.512Z,97840.81
2023-01-31T00:16:25.875Z,97837.34
2023-01-31T00:18:52.458Z,97829.63
2023-01-31T00:21:24.929Z,97834.00
2023-01-31T00:23:52.676Z,97835.78
2023-01-31T00:26:24.124Z,97829.84
2023-01-31T00:28:52.301Z,97832.53
2023-01-31T00:31:20.444Z,97843.03
2023-01-31T00:33:50.414Z,97824.94
2023-01-31T00:36:19.937Z,97833.69
2023-01-31T00:38:55.577Z,97841.56
2023-01-31T00:41:23.973Z,97839.78
2023-01-31T00:43:51.391Z,97842.25
2023-01-31T00:46:20.445Z,97836.06
2023-01-31T00:48:47.356Z,97836.00
2023-01-31T00:51:14.110Z,97836.00
2023-01-31T00:53:40.850Z,97833.44
2023-01-31T00:56:15.126Z,97839.44
2023-01-31T00:58:42.605Z,97854.22
2023-01-31T01:01:15.439Z,97854.19
2023-01-31T01:03:43.843Z,97862.00
2023-01-31T01:06:11.806Z,97862.19
2023-01-31T01:08:40.066Z,97860.38
2023-01-31T01:11:17.081Z,97844.78
2023-01-31T01:13:44.849Z,97850.75
2023-01-31T01:16:21.121Z,97855.94
2023-01-31T01:18:49.320Z,97858.59
2023-01-31T01:21:19.533Z,97851.59
2023-01-31T01:23:49.963Z,97847.16
2023-01-31T01:26:18.713Z,97850.44
2023-01-31T01:28:45.932Z,97856.47
2023-01-31T01:31:14.293Z,97857.28
2023-01-31T01:33:41.013Z,97861.66
2023-01-31T01:36:13.296Z,97864.22
2023-01-31T01:38:41.999Z,97877.22
2023-01-31T01:41:10.163Z,97865.06
2023-01-31T01:43:44.389Z,97863.31
2023-01-31T01:46:16.118Z,97861.63
2023-01-31T01:48:46.490Z,97864.22
2023-01-31T01:51:16.264Z,97873.00
2023-01-31T01:53:44.422Z,97872.19
2023-01-31T01:56:17.047Z,97877.31
2023-01-31T01:59:01.556Z,97868.75
2023-01-31T02:01:31.547Z,97860.97
2023-01-31T02:03:58.439Z,97860.25
2023-01-31T02:06:25.826Z,97860.38
2023-01-31T02:08:54.015Z,97855.25
2023-01-31T02:11:27.341Z,97861.31
2023-01-31T02:14:01.563Z,97858.75
2023-01-31T02:16:28.432Z,97853.59
2023-01-31T02:18:56.892Z,97854.59
2023-01-31T02:22:02.281Z,97855.50
2023-01-31T02:24:54.279Z,97850.28
2023-01-31T02:27:39.731Z,97851.31
2023-01-31T02:30:31.260Z,97848.63
2023-01-31T02:33:03.409Z,97843.63
2023-01-31T02:35:40.376Z,97853.94
2023-01-31T02:38:27.886Z,97854.06
2023-01-31T02:41:09.889Z,97848.94
2023-01-31T02:44:08.473Z,97847.34
2023-01-31T02:46:56.101Z,97845.63
2023-01-31T02:49:36.925Z,97842.19
2023-01-31T02:52:17.176Z,97849.16
2023-01-31T02:55:09.203Z,97848.25
2023-01-31T02:57:38.465Z,97861.22
2023-01-31T03:00:08.308Z,97864.75
2023-01-31T03:02:35.093Z,97867.50
2023-01-31T03:05:03.099Z,97870.91
2023-01-31T03:07:33.749Z,97872.69
2023-01-31T03:10:06.422Z,97884.91
2023-01-31T03:12:38.996Z,97884.06
2023-01-31T03:15:51.919Z,97878.03
2023-01-31T03:18:30.122Z,97878.97
2023-01-31T03:21:04.614Z,97869.59
2023-01-31T03:23:34.721Z,97877.41
2023-01-31T03:26:03.370Z,97872.31
2023-01-31T03:28:32.945Z,97874.84
2023-01-31T03:31:18.746Z,97880.03
2023-01-31T03:33:51.094Z,97872.34
2023-01-31T03:36:36.520Z,97882.00
2023-01-31T03:39:38.408Z,97882.94
2023-01-31T03:42:13.411Z,97886.41
2023-01-31T03:44:49.543Z,97887.22
2023-01-31T03:47:23.250Z,97877.69
2023-01-31T03:49:52.983Z,97873.31
2023-01-31T03:52:26.951Z,97886.34
2023-01-31T03:55:00.273Z,97884.72
2023-01-31T03:57:40.886Z,97875.13
2023-01-31T04:00:14.371Z,97880.34
2023-01-31T04:02:56.322Z,97862.97
2023-01-31T04:05:30.491Z,97869.06
2023-01-31T04:07:58.853Z,97859.59
2023-01-31T04:10:26.488Z,97855.28
2023-01-31T04:12:53.777Z,97872.66
2023-01-31T04:15:20.892Z,97866.66
2023-01-31T04:17:47.769Z,97860.72
2023-01-31T04:20:14.622Z,97856.38
2023-01-31T04:22:41.574Z,97849.44
2023-01-31T04:25:08.630Z,97847.81
2023-01-31T04:27:35.214Z,97847.84
2023-01-31T04:30:01.881Z,97851.44
2023-01-31T04:32:28.916Z,97860.13
2023-01-31T04:34:55.485Z,97850.41
2023-01-31T04:37:22.104Z,97855.59
2023-01-31T04:39:48.659Z,97852.28
2023-01-31T04:42:15.183Z,97856.53
2023-01-31T04:44:41.849Z,97854.81
2023-01-31T04:47:09.023Z,97849.59
2023-01-31T04:49:35.634Z,97860.66
2023-01-31T04:52:02.292Z,97870.00
2023-01-31T04:54:28.873Z,97867.25
2023-01-31T04:56:55.541Z,97863.72
2023-01-31T04:59:22.116Z,97863.81
2023-01-31T05:01:48.776Z,97870.88
2023-01-31T05:04:15.412Z,97869.06
2023-01-31T05:06:41.977Z,97864.66
2023-01-31T05:09:08.911Z,97859.44
2023-01-31T05:11:35.481Z,97863.75
2023-01-31T05:14:02.107Z,97861.97
2023-01-31T05:16:28.795Z,97864.53
2023-01-31T05:19:02.988Z,97853.38
2023-01-31T05:21:29.573Z,97856.91
2023-01-31T05:23:56.125Z,97840.31
2023-01-31T05:26:22.678Z,97837.09
2023-01-31T05:28:49.412Z,97841.38
2023-01-31T05:31:16.249Z,97836.19
2023-01-31T05:33:43.134Z,97838.81
2023-01-31T05:36:09.777Z,97831.03
2023-01-31T05:38:37.014Z,97828.44
2023-01-31T05:41:03.720Z,97833.78
2023-01-31T05:43:30.331Z,97834.53
2023-01-31T05:45:56.914Z,97840.53
2023-01-31T05:48:23.574Z,97841.38
2023-01-31T05:50:50.968Z,97841.41
2023-01-31T05:53:18.925Z,97844.88
2023-01-31T05:55:45.629Z,97845.75
2023-01-31T05:58:12.302Z,97832.69
2023-01-31T06:00:38.936Z,97834.34
2023-01-31T06:03:05.598Z,97840.50
2023-01-31T06:05:32.243Z,97838.78
2023-01-31T06:07:59.079Z,97836.13
2023-01-31T06:10:26.028Z,97833.47
2023-01-31T06:12:52.666Z,97832.72
2023-01-31T06:15:19.551Z,97832.69
2023-01-31T06:17:46.399Z,97823.06
2023-01-31T06:20:13.058Z,97829.94
2023-01-31T06:22:40.902Z,97823.81
2023-01-31T06:25:07.996Z,97828.09
2023-01-31T06:27:35.111Z,97841.06
2023-01-31T06:30:01.880Z,97834.16
2023-01-31T06:32:28.478Z,97831.47
2023-01-31T06:34:55.124Z,97837.66
2023-01-31T06:37:21.723Z,97831.56
2023-01-31T06:39:48.387Z,97833.47
2023-01-31T06:42:14.927Z,97827.38
2023-01-31T06:44:41.537Z,97830.00
2023-01-31T06:47:08.131Z,97834.22
2023-01-31T06:49:34.733Z,97830.00
2023-01-31T06:52:01.324Z,97830.81
2023-01-31T06:54:27.904Z,97842.06
2023-01-31T06:56:54.958Z,97837.72
2023-01-31T06:59:21.624Z,97837.84
2023-01-31T07:01:48.284Z,97836.09
2023-01-31T07:04:15.001Z,97838.69
2023-01-31T07:06:41.585Z,97842.06
2023-01-31T07:09:08.282Z,97846.31
2023-01-31T07:11:34.965Z,97837.66
2023-01-31T07:14:01.579Z,97831.56
2023-01-31T07:16:28.198Z,97832.53
2023-01-31T07:18:55.268Z,97834.22
2023-01-31T07:21:23.025Z,97824.63
2023-01-31T07:23:49.616Z,97825.53
2023-01-31T07:26:16.436Z,97827.28
2023-01-31T07:28:43.070Z,97824.59
2023-01-31T07:31:13.036Z,97840.06
2023-01-31T07:33:40.246Z,97832.94
2023-01-31T07:36:08.390Z,97831.28
2023-01-31T07:38:35.561Z,97826.91
2023-01-31T07:41:03.802Z,97826.88
2023-01-31T07:43:32.373Z,97817.34
2023-01-31T07:45:58.982Z,97825.00
2023-01-31T07:48:26.156Z,97831.00
2023-01-31T07:51:02.596Z,97831.94
2023-01-31T07:53:34.297Z,97842.31
2023-01-31T07:56:15.157Z,97840.72
2023-01-31T07:58:43.463Z,97840.72
2023-01-31T08:01:34.114Z,97843.97
2023-01-31T08:04:18.244Z,97850.88
2023-01-31T08:06:47.626Z,97850.09
2023-01-31T08:09:14.252Z,97850.91
2023-01-31T08:11:40.924Z,97844.03
2023-01-31T08:14:08.734Z,97835.34
2023-01-31T08:16:36.700Z,97840.56
2023-01-31T08:19:16.973Z,97836.28
2023-01-31T08:21:43.605Z,97820.38
2023-01-31T08:24:10.287Z,97822.94
2023-01-31T08:26:37.044Z,97829.56
2023-01-31T08:29:03.730Z,97828.69
2023-01-31T08:31:30.493Z,97823.47
2023-01-31T08:33:57.629Z,97817.72
2023-01-31T08:36:31.685Z,97819.34
2023-01-31T08:38:59.073Z,97815.88
2023-01-31T08:41:27.394Z,97807.16
2023-01-31T08:43:57.876Z,97811.63
2023-01-31T08:46:26.990Z,97820.97
2023-01-31T08:48:53.705Z,97810.91
2023-01-31T08:51:20.702Z,97814.78
2023-01-31T08:53:47.389Z,97814.63
2023-01-31T08:56:15.205Z,97811.50
2023-01-31T08:58:43.666Z,97806.16
2023-01-31T09:01:18.368Z,97815.00
2023-01-31T09:03:46.418Z,97812.25
2023-01-31T09:06:16.221Z,97799.59
2023-01-31T09:08:43.210Z,97797.41
2023-01-31T09:11:10.142Z,97801.84
2023-01-31T09:13:36.929Z,97811.78
2023-01-31T09:16:09.090Z,97810.75
2023-01-31T09:18:47.872Z,97814.97
2023-01-31T09:21:17.782Z,97804.06
2023-01-31T09:23:45.238Z,97816.91
2023-01-31T09:26:12.815Z,97811.22
2023-01-31T09:28:42.667Z,97810.66
2023-01-31T09:31:12.399Z,97797.63
2023-01-31T09:33:39.272Z,97793.97
2023-01-31T09:36:09.190Z,97792.81
2023-01-31T09:38:35.936Z,97796.81
2023-01-31T09:41:17.304Z,97819.72
2023-01-31T09:43:51.352Z,97813.91
2023-01-31T09:46:22.839Z,97820.97
2023-01-31T09:48:52.751Z,97827.25
2023-01-31T09:51:20.840Z,97826.81
2023-01-31T09:53:47.793Z,97823.41
2023-01-31T09:56:21.045Z,97811.16
2023-01-31T09:59:04.945Z,97819.06
2023-01-31T10:01:39.208Z,97812.78
2023-01-31T10:04:15.019Z,97807.44
2023-01-31T10:07:17.750Z,97815.97
2023-01-31T10:09:51.460Z,97820.63
2023-01-31T10:12:24.848Z,97830.16
2023-01-31T10:15:01.653Z,97825.84
2023-01-31T10:17:32.699Z,97821.13
2023-01-31T10:20:18.664Z,97814.72
2023-01-31T10:23:05.052Z,97804.34
2023-01-31T10:25:38.389Z,97788.66
2023-01-31T10:28:13.727Z,97785.19
2023-01-31T10:30:56.707Z,97775.81
2023-01-31T10:33:42.981Z,97783.59
2023-01-31T10:36:16.449Z,97779.69
2023-01-31T10:39:07.411Z,97771.25
2023-01-31T10:42:18.702Z,97768.56
2023-01-31T10:45:15.399Z,97771.06
2023-01-31T10:47:47.936Z,97773.84
2023-01-31T10:50:32.285Z,97779.22
2023-01-31T10:53:20.576Z,97758.59
2023-01-31T10:56:03.791Z,97749.75
2023-01-31T10:58:30.977Z,97737.44
2023-01-31T11:00:58.932Z,97732.88
2023-01-31T11:03:25.692Z,97737.09
2023-01-31T11:05:55.088Z,97711.88
2023-01-31T11:08:42.276Z,97713.28
2023-01-31T11:11:18.042Z,97713.22
2023-01-31T11:13:56.496Z,97726.50
2023-01-31T11:16:24.742Z,97722.19
2023-01-31T11:18:53.445Z,97713.44
2023-01-31T11:21:29.490Z,97700.91
2023-01-31T11:24:14.183Z,97685.31
2023-01-31T11:26:53.782Z,97681.06
2023-01-31T11:29:26.974Z,97675.81
2023-01-31T11:31:55.361Z,97673.16
2023-01-31T11:34:25.301Z,97683.50
2023-01-31T11:36:52.495Z,97678.34
2023-01-31T11:39:28.611Z,97687.22
2023-01-31T11:41:55.710Z,97687.25
2023-01-31T11:44:23.535Z,97670.69
2023-01-31T11:47:18.249Z,97658.56
2023-01-31T11:49:50.459Z,97664.09
2023-01-31T11:52:22.524Z,97662.44
2023-01-31T11:54:58.377Z,97670.94
2023-01-31T11:57:28.760Z,97666.22
2023-01-31T11:59:58.839Z,97657.41
2023-01-31T12:02:41.941Z,97640.69
2023-01-31T12:05:12.291Z,97625.75
2023-01-31T12:07:50.110Z,97628.25
2023-01-31T12:10:43.116Z,97616.88
2023-01-31T12:13:19.473Z,97620.59
2023-01-31T12:15:52.322Z,97621.66
2023-01-31T12:18:29.295Z,97614.69
2023-01-31T12:21:10.647Z,97612.09
2023-01-31T12:23:52.577Z,97608.44
2023-01-31T12:26:48.537Z,97601.25
2023-01-31T12:29:39.938Z,97603.00
2023-01-31T12:32:20.277Z,97607.19
2023-01-31T12:35:26.598Z,97607.88
2023-01-31T12:38:11.362Z,97587.72
2023-01-31T12:40:48.773Z,97586.25
2023-01-31T12:43:38.261Z,97568.66
2023-01-31T12:46:16.185Z,97569.72
2023-01-31T12:48:58.676Z,97568.69
2023-01-31T12:51:59.445Z,97561.06
2023-01-31T12:54:29.145Z,97557.47
2023-01-31T12:57:21.800Z,97572.94
2023-01-31T13:00:15.597Z,97564.50
2023-01-31T13:03:03.347Z,97568.84
2023-01-31T13:05:39.054Z,97556.41
2023-01-31T13:08:17.446Z,97543.69
2023-01-31T13:10:49.602Z,97540.00
2023-01-31T13:13:38.099Z,97531.19
2023-01-31T13:16:13.602Z,97533.09
2023-01-31T13:18:49.280Z,97540.94
2023-01-31T13:21:27.103Z,97529.69
2023-01-31T13:23:58.504Z,97532.91
2023-01-31T13:26:32.816Z,97531.28
2023-01-31T13:29:12.900Z,97543.31
2023-01-31T13:31:46.837Z,97536.41
2023-01-31T13:34:22.972Z,97534.84
2023-01-31T13:36:58.000Z,97534.72
2023-01-31T13:39:30.873Z,97540.78
2023-01-31T13:41:58.080Z,97533.84
2023-01-31T13:44:24.705Z,97535.56
2023-01-31T13:46:58.379Z,97538.41
2023-01-31T13:49:51.270Z,97535.50
2023-01-31T13:52:30.488Z,97543.41
2023-01-31T13:55:22.856Z,97547.47
2023-01-31T13:58:00.181Z,97536.06
2023-01-31T14:00:43.122Z,97548.41
2023-01-31T14:03:13.515Z,97548.59
2023-01-31T14:05:43.287Z,97548.88
2023-01-31T14:08:30.378Z,97554.78
2023-01-31T14:10:59.384Z,97542.34
2023-01-31T14:13:31.757Z,97542.69
2023-01-31T14:15:59.224Z,97535.25
2023-01-31T14:18:49.293Z,97536.16
2023-01-31T14:21:30.940Z,97560.75
2023-01-31T14:24:00.694Z,97554.53
2023-01-31T14:26:36.430Z,97560.50
2023-01-31T14:29:29.543Z,97557.16
2023-01-31T14:31:57.150Z,97558.94
2023-01-31T14:34:29.051Z,97558.94
2023-01-31T14:37:09.382Z,97556.34
2023-01-31T14:39:50.377Z,97556.09
2023-01-31T14:42:19.587Z,97556.34
2023-01-31T14:45:20.306Z,97556.28
2023-01-31T14:48:13.522Z,97542.47
2023-01-31T14:50:46.111Z,97550.69
2023-01-31T14:53:31.327Z,97551.75
2023-01-31T14:55:57.819Z,97556.75
2023-01-31T14:58:27.939Z,97544.72
2023-01-31T15:00:58.619Z,97547.22
2023-01-31T15:03:38.192Z,97546.25
2023-01-31T15:06:13.021Z,97550.69
2023-01-31T15:08:43.876Z,97555.03
2023-01-31T15:11:40.924Z,97546.78
2023-01-31T15:14:34.226Z,97528.31
2023-01-31T15:17:40.296Z,97538.44
2023-01-31T15:20:15.150Z,97534.31
2023-01-31T15:22:44.152Z,97539.09
2023-01-31T15:25:50.575Z,97539.09
2023-01-31T15:28:30.494Z,97547.03
2023-01-31T15:31:01.321Z,97545.19
2023-01-31T15:33:49.228Z,97552.25
2023-01-31T15:36:27.947Z,97544.38
2023-01-31T15:38:57.385Z,97554.72
2023-01-31T15:41:36.737Z,97542.44
2023-01-31T15:44:23.942Z,97555.53
2023-01-31T15:46:53.218Z,97543.34
2023-01-31T15:49:39.733Z,97536.50
2023-01-31T15:52:12.901Z,97542.25
2023-01-31T15:54:50.384Z,97543.94
2023-01-31T15:57:17.506Z,97540.19
2023-01-31T15:59:47.954Z,97550.84
2023-01-31T16:02:22.584Z,97551.81
2023-01-31T16:04:49.218Z,97551.03
2023-01-31T16:07:18.100Z,97551.75
2023-01-31T16:09:45.114Z,97558.81
2023-01-31T16:12:13.285Z,97565.94
2023-01-31T16:14:46.356Z,97570.44
2023-01-31T16:17:13.444Z,97570.53
2023-01-31T16:19:50.519Z,97578.25
2023-01-31T16:22:30.687Z,97567.41
2023-01-31T16:25:02.384Z,97585.72
2023-01-31T16:27:37.535Z,97577.91
2023-01-31T16:30:05.126Z,97576.31
2023-01-31T16:32:35.057Z,97578.78
2023-01-31T16:35:06.139Z,97583.84
2023-01-31T16:37:36.935Z,97569.84
2023-01-31T16:40:17.807Z,97564.69
2023-01-31T16:42:44.728Z,97562.94
2023-01-31T16:45:33.550Z,97566.31
2023-01-31T16:48:22.174Z,97551.50
2023-01-31T16:50:50.746Z,97566.09
2023-01-31T16:53:23.072Z,97561.19
2023-01-31T16:56:16.266Z,97565.47
2023-01-31T16:58:56.514Z,97563.19
2023-01-31T17:01:27.752Z,97576.75
2023-01-31T17:04:05.624Z,97569.09
2023-01-31T17:06:33.131Z,97564.50
2023-01-31T17:09:01.031Z,97574.31
2023-01-31T17:11:41.744Z,97577.72
2023-01-31T17:14:09.884Z,97571.59
2023-01-31T17:16:36.569Z,97568.09
2023-01-31T17:19:03.389Z,97561.03
2023-01-31T17:21:40.967Z,97561.28
2023-01-31T17:24:13.358Z,97564.63
2023-01-31T17:26:40.053Z,97562.88
2023-01-31T17:29:06.663Z,97563.09
2023-01-31T17:31:34.638Z,97572.63
2023-01-31T17:34:01.538Z,97567.16
2023-01-31T17:36:28.110Z,97574.06
2023-01-31T17:38:54.689Z,97572.44
2023-01-31T17:41:24.620Z,97576.97
2023-01-31T17:43:51.541Z,97580.19
2023-01-31T17:46:19.708Z,97580.38
2023-01-31T17:48:46.555Z,97588.91
2023-01-31T17:51:13.737Z,97578.56
2023-01-31T17:53:49.502Z,97594.16
2023-01-31T17:56:18.684Z,97581.94
2023-01-31T17:58:45.927Z,97579.53
2023-01-31T18:01:14.237Z,97584.00
2023-01-31T18:03:42.300Z,97582.28
2023-01-31T18:06:11.104Z,97582.13
2023-01-31T18:08:38.173Z,97585.53
2023-01-31T18:11:14.973Z,97585.34
2023-01-31T18:13:43.210Z,97581.19
2023-01-31T18:16:16.764Z,97577.53
2023-01-31T18:18:44.166Z,97580.03
2023-01-31T18:21:16.036Z,97578.56
2023-01-31T18:23:43.232Z,97577.72
2023-01-31T18:26:11.408Z,97580.28
2023-01-31T18:28:38.032Z,97580.03
2023-01-31T18:31:10.507Z,97576.69
2023-01-31T18:33:37.728Z,97573.22
2023-01-31T18:36:05.927Z,97582.88
2023-01-31T18:38:32.941Z,97571.59
2023-01-31T18:41:00.291Z,97578.44
2023-01-31T18:43:30.443Z,97567.84
2023-01-31T18:45:57.035Z,97573.22
2023-01-31T18:48:23.694Z,97574.06
2023-01-31T18:50:50.317Z,97570.56
2023-01-31T18:53:16.892Z,97576.50
2023-01-31T18:55:43.410Z,97561.53
2023-01-31T18:58:10.035Z,97562.31
2023-01-31T19:00:36.646Z,97571.28
2023-01-31T19:03:03.785Z,97565.19
2023-01-31T19:05:30.580Z,97553.31
2023-01-31T19:07:57.279Z,97544.13
2023-01-31T19:10:23.825Z,97557.88
2023-01-31T19:12:50.391Z,97560.69
2023-01-31T19:15:16.941Z,97562.44
2023-01-31T19:17:43.529Z,97557.03
2023-01-31T19:20:10.947Z,97559.81
2023-01-31T19:22:37.582Z,97563.81
2023-01-31T19:25:08.411Z,97560.25
2023-01-31T19:27:35.005Z,97559.53
2023-01-31T19:30:01.716Z,97549.41
2023-01-31T19:32:29.174Z,97552.06
2023-01-31T19:34:55.848Z,97566.09
2023-01-31T19:37:22.446Z,97557.88
2023-01-31T19:39:49.101Z,97552.59
2023-01-31T19:42:15.732Z,97543.13
2023-01-31T19:44:42.303Z,97538.81
2023-01-31T19:47:08.899Z,97542.28
2023-01-31T19:49:35.433Z,97543.94
2023-01-31T19:52:02.032Z,97551.44
2023-01-31T19:54:28.627Z,97549.63
2023-01-31T19:56:55.201Z,97552.22
2023-01-31T19:59:21.756Z,97547.06
2023-01-31T20:01:48.463Z,97558.47
2023-01-31T20:04:15.113Z,97564.53
2023-01-31T20:06:41.652Z,97559.31
2023-01-31T20:09:10.810Z,97568.06
2023-01-31T20:11:37.368Z,97558.34
2023-01-31T20:14:04.608Z,97567.94
2023-01-31T20:16:31.357Z,97558.53
2023-01-31T20:19:00.757Z,97554.63
2023-01-31T20:21:27.501Z,97549.63
2023-01-31T20:23:54.132Z,97538.22
2023-01-31T20:26:22.776Z,97539.00
2023-01-31T20:28:49.866Z,97539.97
2023-01-31T20:31:16.900Z,97552.22
2023-01-31T20:33:43.596Z,97556.66
2023-01-31T20:36:10.797Z,97553.84
2023-01-31T20:38:38.688Z,97551.13
2023-01-31T20:41:07.239Z,97548.63
2023-01-31T20:43:34.289Z,97545.97
2023-01-31T20:46:06.143Z,97555.31
2023-01-31T20:48:32.766Z,97554.38
2023-01-31T20:50:59.888Z,97562.28
2023-01-31T20:53:28.733Z,97544.84
2023-01-31T20:56:00.947Z,97540.81
2023-01-31T20:58:29.309Z,97550.22
2023-01-31T21:00:57.197Z,97543.31
2023-01-31T21:03:24.375Z,97545.06
2023-01-31T21:05:51.445Z,97549.47
2023-01-31T21:08:18.865Z,97552.63
2023-01-31T21:10:53.139Z,97557.84
2023-01-31T21:13:20.518Z,97560.50
2023-01-31T21:15:51.459Z,97552.69
2023-01-31T21:18:19.229Z,97556.81
2023-01-31T21:20:46.921Z,97547.19
2023-01-31T21:23:14.078Z,97549.00
2023-01-31T21:25:40.733Z,97554.91
2023-01-31T21:28:07.340Z,97549.69
2023-01-31T21:30:34.006Z,97543.69
2023-01-31T21:33:00.613Z,97555.91
2023-01-31T21:35:27.546Z,97558.44
2023-01-31T21:37:54.278Z,97575.66
2023-01-31T21:40:21.559Z,97582.66
2023-01-31T21:42:53.353Z,97584.56
2023-01-31T21:45:39.631Z,97581.16
2023-01-31T21:48:26.880Z,97571.56
2023-01-31T21:50:54.059Z,97560.72
2023-01-31T21:53:20.794Z,97552.94
2023-01-31T21:55:47.614Z,97547.72
2023-01-31T21:58:14.405Z,97552.16
2023-01-31T22:00:43.806Z,97548.56
2023-01-31T22:03:11.475Z,97545.75
2023-01-31T22:05:38.273Z,97540.56
2023-01-31T22:08:05.512Z,97539.63
2023-01-31T22:10:32.294Z,97544.78
2023-01-31T22:12:58.875Z,97534.41
2023-01-31T22:15:25.730Z,97533.56
2023-01-31T22:17:52.810Z,97529.34
2023-01-31T22:20:19.819Z,97526.63
2023-01-31T22:22:48.515Z,97518.59
2023-01-31T22:25:15.445Z,97518.53
2023-01-31T22:27:42.119Z,97515.97
2023-01-31T22:30:16.050Z,97517.59
2023-01-31T22:32:43.392Z,97514.81
2023-01-31T22:35:10.251Z,97514.75
2023-01-31T22:37:36.812Z,97513.84
2023-01-31T22:40:03.617Z,97507.81
2023-01-31T22:42:30.188Z,97508.84
2023-01-31T22:44:56.765Z,97509.66
2023-01-31T22:47:24.436Z,97511.41
2023-01-31T22:49:51.029Z,97507.75
2023-01-31T22:52:17.599Z,97514.94
2023-01-31T22:54:44.212Z,97505.13
2023-01-31T22:57:10.786Z,97513.75
2023-01-31T22:59:37.440Z,97505.06
2023-01-31T23:02:04.053Z,97501.59
2023-01-31T23:04:30.682Z,97508.69
2023-01-31T23:06:57.298Z,97500.97
2023-01-31T23:09:23.857Z,97492.16
2023-01-31T23:11:50.436Z,97489.63
2023-01-31T23:14:16.980Z,97486.16
2023-01-31T23:17:02.216Z,97482.66
2023-01-31T23:19:38.967Z,97478.50
2023-01-31T23:22:05.518Z,97469.22
2023-01-31T23:24:35.171Z,97468.38
2023-01-31T23:27:01.705Z,97467.72
2023-01-31T23:29:28.306Z,97461.75
2023-01-31T23:31:54.943Z,97449.88
2023-01-31T23:34:21.611Z,97458.59
2023-01-31T23:36:48.208Z,97458.59
2023-01-31T23:39:14.819Z,97445.63
2023-01-31T23:41:41.492Z,97444.84
2023-01-31T23:44:08.269Z,97449.09
2023-01-31T23:46:35.143Z,97437.75
2023-01-31T23:49:01.715Z,97447.91
2023-01-31T23:51:28.657Z,97451.09
2023-01-31T23:53:55.266Z,97458.19
2023-01-31T23:56:21.919Z,97448.38
2023-01-31T23:58:48.482Z,97445.72
